createdAt,value
2018-12-24T00:00:49.344Z,6.20
2018-12-24T00:03:30.585Z,6.10
2018-12-24T00:06:11.988Z,6.10
2018-12-24T00:08:53.373Z,6.00
2018-12-24T00:11:34.477Z,6.00
2018-12-24T00:14:15.618Z,6.00
2018-12-24T00:16:56.434Z,6.00
2018-12-24T00:19:37.401Z,5.90
2018-12-24T00:22:18.406Z,5.80
2018-12-24T00:24:59.845Z,5.70
2018-12-24T00:27:41.187Z,5.70
2018-12-24T00:30:22.254Z,5.70
2018-12-24T00:33:03.025Z,5.70
2018-12-24T00:35:44.137Z,5.70
2018-12-24T00:38:25.274Z,5.70
2018-12-24T00:41:07.166Z,5.70
2018-12-24T00:43:48.124Z,5.70
2018-12-24T00:46:29.429Z,5.70
2018-12-24T00:49:10.321Z,5.60
2018-12-24T00:51:50.841Z,5.60
2018-12-24T00:54:31.377Z,5.60
2018-12-24T00:57:12.009Z,5.60
2018-12-24T00:59:52.621Z,5.50
2018-12-24T01:02:33.161Z,5.50
2018-12-24T01:05:14.185Z,5.50
2018-12-24T01:07:55.006Z,5.50
2018-12-24T01:10:36.357Z,5.40
2018-12-24T01:13:16.979Z,5.40
2018-12-24T01:15:58.298Z,5.30
2018-12-24T01:18:39.449Z,5.30
2018-12-24T01:21:20.497Z,5.30
2018-12-24T01:24:01.070Z,5.20
2018-12-24T01:26:42.491Z,5.10
2018-12-24T01:29:23.524Z,5.10
2018-12-24T01:32:04.954Z,5.10
2018-12-24T01:34:45.385Z,5.10
2018-12-24T01:37:14.052Z,5.10
2018-12-24T01:39:42.761Z,5.10
2018-12-24T01:42:11.428Z,5.10
2018-12-24T01:44:59.485Z,5.10
2018-12-24T01:47:40.016Z,5.00
2018-12-24T01:50:20.859Z,5.00
2018-12-24T01:53:02.016Z,5.00
2018-12-24T01:55:43.279Z,4.90
2018-12-24T01:58:24.122Z,4.90
2018-12-24T02:01:05.078Z,4.90
2018-12-24T02:03:45.733Z,4.90
2018-12-24T02:06:27.057Z,4.90
2018-12-24T02:09:08.293Z,4.80
2018-12-24T02:11:49.281Z,4.80
2018-12-24T02:14:30.366Z,4.80
2018-12-24T02:17:10.889Z,4.70
2018-12-24T02:19:51.960Z,4.70
2018-12-24T02:22:33.081Z,4.60
2018-12-24T02:25:13.836Z,4.50
2018-12-24T02:27:54.308Z,4.50
2018-12-24T02:30:34.926Z,4.50
2018-12-24T02:33:16.269Z,4.50
2018-12-24T02:35:57.141Z,4.40
2018-12-24T02:38:38.312Z,4.40
2018-12-24T02:41:18.918Z,4.40
2018-12-24T02:44:00.154Z,4.20
2018-12-24T02:46:40.982Z,4.10
2018-12-24T02:49:21.900Z,4.10
2018-12-24T02:52:03.288Z,4.10
2018-12-24T02:54:43.759Z,4.00
2018-12-24T02:57:25.149Z,4.00
2018-12-24T03:00:06.498Z,3.90
2018-12-24T03:02:47.165Z,3.90
2018-12-24T03:05:28.425Z,3.90
2018-12-24T03:08:09.713Z,4.00
2018-12-24T03:10:50.715Z,4.00
2018-12-24T03:13:31.806Z,4.00
2018-12-24T03:16:12.765Z,4.00
2018-12-24T03:18:53.929Z,3.90
2018-12-24T03:21:34.801Z,3.90
2018-12-24T03:24:15.485Z,3.80
2018-12-24T03:26:56.756Z,3.80
2018-12-24T03:29:37.578Z,3.80
2018-12-24T03:32:18.185Z,3.80
2018-12-24T03:34:58.726Z,3.70
2018-12-24T03:37:39.901Z,3.60
2018-12-24T03:40:20.481Z,3.50
2018-12-24T03:43:01.765Z,3.40
2018-12-24T03:45:43.082Z,3.30
2018-12-24T03:48:24.594Z,3.20
2018-12-24T03:51:05.860Z,3.20
2018-12-24T03:53:46.674Z,3.20
2018-12-24T03:56:27.525Z,3.10
2018-12-24T03:59:08.946Z,3.10
2018-12-24T04:01:49.932Z,3.10
2018-12-24T04:04:30.450Z,3.10
2018-12-24T04:07:10.198Z,3.10
2018-12-24T04:09:58.257Z,3.00
2018-12-24T04:12:46.272Z,3.00
2018-12-24T04:15:34.392Z,3.00
2018-12-24T04:18:22.400Z,2.90
2018-12-24T04:21:10.462Z,2.90
2018-12-24T04:27:05.382Z,3.00
2018-12-24T04:29:53.395Z,2.90
2018-12-24T04:32:41.438Z,2.90
2018-12-24T04:35:29.471Z,2.90
2018-12-24T04:38:17.514Z,2.90
2018-12-24T04:41:05.569Z,2.90
2018-12-24T04:43:53.641Z,2.90
2018-12-24T04:46:34.916Z,2.80
2018-12-24T04:49:15.547Z,2.90
2018-12-24T04:51:56.601Z,2.90
2018-12-24T04:54:37.533Z,2.80
2018-12-24T04:57:18.242Z,2.80
2018-12-24T04:59:59.473Z,2.80
2018-12-24T05:02:39.980Z,2.80
2018-12-24T05:05:20.972Z,2.80
2018-12-24T05:08:02.327Z,2.80
2018-12-24T05:10:42.812Z,2.80
2018-12-24T05:13:23.894Z,2.80
2018-12-24T05:16:04.437Z,2.90
2018-12-24T05:18:45.196Z,2.80
2018-12-24T05:21:26.541Z,2.80
2018-12-24T05:24:07.900Z,2.80
2018-12-24T05:26:48.549Z,2.70
2018-12-24T05:29:17.206Z,2.70
2018-12-24T05:31:45.920Z,2.70
2018-12-24T05:34:14.586Z,2.60
2018-12-24T05:36:43.253Z,2.50
2018-12-24T05:39:11.976Z,2.50
2018-12-24T05:41:40.631Z,2.50
2018-12-24T05:44:28.689Z,2.50
2018-12-24T05:47:16.702Z,2.50
2018-12-24T05:50:04.748Z,2.50
2018-12-24T05:52:52.760Z,2.50
2018-12-24T05:55:33.384Z,2.50
2018-12-24T05:58:14.351Z,2.50
2018-12-24T06:00:55.817Z,2.50
2018-12-24T06:03:36.847Z,2.40
2018-12-24T06:06:17.436Z,2.40
2018-12-24T06:08:58.353Z,2.40
2018-12-24T06:11:39.404Z,2.30
2018-12-24T06:14:20.432Z,2.30
2018-12-24T06:17:01.414Z,2.40
2018-12-24T06:19:42.122Z,2.40
2018-12-24T06:22:23.450Z,2.40
2018-12-24T06:25:04.554Z,2.40
2018-12-24T06:27:46.275Z,2.40
2018-12-24T06:30:27.600Z,2.50
2018-12-24T06:33:08.909Z,2.50
2018-12-24T06:35:50.111Z,2.50
2018-12-24T06:38:31.109Z,2.60
2018-12-24T06:41:12.460Z,2.50
2018-12-24T06:43:53.055Z,2.60
2018-12-24T06:46:34.098Z,2.50
2018-12-24T06:49:15.641Z,2.50
2018-12-24T06:51:56.558Z,2.40
2018-12-24T06:54:37.283Z,2.40
2018-12-24T06:57:17.973Z,2.40
2018-12-24T06:59:58.494Z,2.40
2018-12-24T07:02:38.989Z,2.40
2018-12-24T07:05:19.717Z,2.40
2018-12-24T07:08:00.558Z,2.40
2018-12-24T07:10:42.007Z,2.50
2018-12-24T07:13:22.778Z,2.50
2018-12-24T07:16:03.485Z,2.50
2018-12-24T07:18:44.470Z,2.60
2018-12-24T07:21:24.933Z,2.60
2018-12-24T07:24:06.337Z,2.60
2018-12-24T07:26:47.092Z,2.70
2018-12-24T07:29:27.618Z,2.70
2018-12-24T07:32:08.297Z,2.60
2018-12-24T07:34:49.500Z,2.70
2018-12-24T07:37:30.001Z,2.70
2018-12-24T07:40:10.895Z,2.70
2018-12-24T07:42:51.901Z,2.70
2018-12-24T07:45:33.356Z,2.80
2018-12-24T07:48:14.748Z,3.10
2018-12-24T07:50:56.053Z,3.40
2018-12-24T07:53:37.150Z,3.60
2018-12-24T07:56:18.037Z,3.90
2018-12-24T07:58:59.238Z,4.20
2018-12-24T08:01:40.431Z,4.30
2018-12-24T08:04:21.135Z,4.00
2018-12-24T08:07:02.046Z,3.70
2018-12-24T08:09:43.196Z,3.50
2018-12-24T08:12:23.863Z,3.30
2018-12-24T08:15:04.542Z,3.10
2018-12-24T08:17:45.030Z,3.00
2018-12-24T08:20:25.872Z,2.80
2018-12-24T08:23:06.683Z,2.70
2018-12-24T08:25:47.433Z,2.60
2018-12-24T08:28:28.381Z,2.50
2018-12-24T08:30:57.885Z,2.40
2018-12-24T08:34:05.435Z,2.40
2018-12-24T08:36:53.816Z,2.40
2018-12-24T08:39:41.895Z,2.40
2018-12-24T08:42:29.893Z,2.40
2018-12-24T08:45:17.947Z,2.30
2018-12-24T08:48:06.025Z,2.30
2018-12-24T08:50:54.076Z,2.40
2018-12-24T08:53:42.092Z,2.40
2018-12-24T08:56:30.149Z,2.30
2018-12-24T08:59:18.157Z,2.30
2018-12-24T09:01:58.972Z,2.20
2018-12-24T09:04:40.093Z,2.50
2018-12-24T09:07:21.117Z,2.90
2018-12-24T09:10:02.519Z,3.20
2018-12-24T09:12:43.378Z,3.40
2018-12-24T09:15:24.178Z,3.20
2018-12-24T09:18:04.753Z,3.00
2018-12-24T09:20:52.445Z,2.80
2018-12-24T09:23:27.798Z,2.70
2018-12-24T09:26:09.035Z,2.70
2018-12-24T09:28:49.870Z,2.80
2018-12-24T09:31:30.288Z,3.00
2018-12-24T09:34:11.312Z,3.20
2018-12-24T09:36:52.426Z,3.40
2018-12-24T09:39:21.154Z,3.80
2018-12-24T09:41:49.825Z,4.20
2018-12-24T09:44:37.941Z,4.40
2018-12-24T09:47:26.002Z,4.50
2018-12-24T09:50:14.142Z,4.70
2018-12-24T09:53:02.222Z,5.00
2018-12-24T09:55:50.329Z,5.20
2018-12-24T09:58:39.969Z,5.40
2018-12-24T10:01:27.955Z,5.60
2018-12-24T10:04:09.361Z,5.80
2018-12-24T10:06:49.944Z,5.90
2018-12-24T10:09:30.573Z,6.00
2018-12-24T10:12:11.457Z,6.10
2018-12-24T10:14:52.387Z,6.10
2018-12-24T10:17:33.034Z,6.10
2018-12-24T10:20:13.882Z,6.20
2018-12-24T10:22:54.466Z,6.40
2018-12-24T10:25:35.796Z,6.50
2018-12-24T10:28:16.712Z,6.50
2018-12-24T10:30:57.765Z,6.40
2018-12-24T10:33:38.862Z,6.50
2018-12-24T10:36:19.865Z,6.60
2018-12-24T10:39:01.027Z,6.60
2018-12-24T10:41:41.911Z,6.70
2018-12-24T10:44:22.598Z,6.60
2018-12-24T10:47:03.205Z,6.70
2018-12-24T10:49:44.359Z,6.90
2018-12-24T10:52:25.728Z,7.00
2018-12-24T10:55:06.214Z,7.10
2018-12-24T10:57:47.505Z,7.10
2018-12-24T11:00:29.273Z,7.20
2018-12-24T11:03:00.412Z,7.10
2018-12-24T11:05:48.465Z,7.00
2018-12-24T11:08:36.470Z,6.70
2018-12-24T11:11:24.803Z,6.40
2018-12-24T11:14:14.336Z,6.20
2018-12-24T11:17:02.397Z,6.00
2018-12-24T11:22:57.320Z,5.60
2018-12-24T11:25:45.330Z,5.40
2018-12-24T11:31:27.236Z,5.20
2018-12-24T11:34:15.308Z,5.20
2018-12-24T11:40:10.221Z,5.20
2018-12-24T11:42:58.305Z,5.20
2018-12-24T11:45:46.357Z,5.20
2018-12-24T11:48:34.369Z,5.20
2018-12-24T11:51:22.432Z,5.10
2018-12-24T11:54:10.453Z,5.20
2018-12-24T11:56:58.506Z,5.20
2018-12-24T11:59:46.512Z,5.20
2018-12-24T12:02:34.563Z,5.20
2018-12-24T12:05:22.592Z,5.10
2018-12-24T12:08:10.664Z,5.10
2018-12-24T12:10:58.659Z,5.20
2018-12-24T12:13:46.708Z,5.20
2018-12-24T12:16:34.717Z,5.20
2018-12-24T12:19:22.774Z,5.10
2018-12-24T12:22:10.781Z,5.00
2018-12-24T12:24:58.833Z,5.00
2018-12-24T12:27:46.851Z,5.10
2018-12-24T12:30:34.902Z,5.20
2018-12-24T12:36:29.880Z,5.10
2018-12-24T12:39:17.891Z,5.00
2018-12-24T12:44:59.696Z,4.80
2018-12-24T12:47:47.769Z,4.80
2018-12-24T12:50:35.751Z,4.70
2018-12-24T12:53:23.801Z,4.80
2018-12-24T12:56:11.928Z,4.80
2018-12-24T12:58:59.977Z,4.70
2018-12-24T13:01:47.992Z,4.70
2018-12-24T13:04:36.045Z,4.80
2018-12-24T13:07:24.048Z,4.70
2018-12-24T13:10:04.785Z,4.80
2018-12-24T13:12:45.525Z,4.80
2018-12-24T13:15:26.114Z,4.80
2018-12-24T13:18:06.850Z,4.80
2018-12-24T13:20:47.753Z,4.80
2018-12-24T13:23:28.357Z,4.80
2018-12-24T13:26:09.785Z,4.80
2018-12-24T13:28:51.228Z,4.70
2018-12-24T13:31:31.741Z,4.60
2018-12-24T13:34:12.818Z,4.60
2018-12-24T13:36:53.937Z,4.60
2018-12-24T13:39:35.273Z,4.60
2018-12-24T13:42:16.281Z,4.60
2018-12-24T13:44:57.354Z,4.60
2018-12-24T13:47:38.080Z,4.60
2018-12-24T13:50:52.189Z,4.50
2018-12-24T13:53:41.872Z,4.50
2018-12-24T13:56:18.845Z,4.50
2018-12-24T13:59:00.001Z,4.30
2018-12-24T14:04:23.412Z,4.20
2018-12-24T14:07:04.252Z,4.10
2018-12-24T14:09:44.653Z,4.00
2018-12-24T14:12:25.466Z,4.00
2018-12-24T14:15:05.946Z,4.00
2018-12-24T14:17:46.461Z,3.90
2018-12-24T14:20:27.032Z,3.90
2018-12-24T14:23:07.761Z,4.00
2018-12-24T14:25:48.977Z,4.10
2018-12-24T14:28:30.250Z,4.10
2018-12-24T14:31:11.080Z,4.10
2018-12-24T14:33:52.470Z,4.20
2018-12-24T14:36:33.801Z,4.20
2018-12-24T14:39:15.008Z,4.20
2018-12-24T14:41:56.125Z,4.10
2018-12-24T14:44:36.626Z,4.10
2018-12-24T14:47:17.494Z,4.10
2018-12-24T14:49:58.409Z,4.00
2018-12-24T14:52:26.967Z,4.00
2018-12-24T14:55:14.914Z,4.00
2018-12-24T14:58:02.806Z,3.90
2018-12-24T15:00:50.769Z,3.90
2018-12-24T15:06:45.596Z,3.90
2018-12-24T15:09:26.576Z,3.90
2018-12-24T15:12:07.774Z,4.00
2018-12-24T15:14:48.871Z,4.00
2018-12-24T15:17:29.320Z,4.00
2018-12-24T15:20:10.512Z,4.00
2018-12-24T15:22:51.369Z,3.90
2018-12-24T15:25:32.602Z,3.80
2018-12-24T15:28:13.107Z,3.60
2018-12-24T15:30:53.844Z,3.80
2018-12-24T15:33:34.560Z,3.80
2018-12-24T15:36:15.329Z,3.80
2018-12-24T15:38:56.413Z,3.80
2018-12-24T15:41:37.572Z,3.80
2018-12-24T15:44:18.045Z,3.90
2018-12-24T15:46:58.589Z,3.90
2018-12-24T15:49:39.029Z,3.80
2018-12-24T15:52:19.511Z,3.80
2018-12-24T15:55:00.578Z,3.80
2018-12-24T15:57:41.073Z,3.80
2018-12-24T16:00:21.528Z,3.70
2018-12-24T16:03:02.397Z,3.60
2018-12-24T16:05:43.602Z,3.60
2018-12-24T16:08:24.429Z,3.60
2018-12-24T16:11:05.508Z,3.60
2018-12-24T16:13:45.966Z,3.50
2018-12-24T16:16:26.907Z,3.50
2018-12-24T16:19:07.962Z,3.60
2018-12-24T16:21:49.029Z,3.50
2018-12-24T16:24:29.969Z,3.50
2018-12-24T16:27:11.116Z,3.50
2018-12-24T16:29:51.545Z,3.40
2018-12-24T16:32:32.817Z,3.40
2018-12-24T16:37:55.876Z,3.50
2018-12-24T16:40:36.921Z,3.50
2018-12-24T16:43:17.977Z,3.50
2018-12-24T16:45:59.092Z,3.60
2018-12-24T16:48:40.108Z,3.60
2018-12-24T16:51:20.908Z,3.60
2018-12-24T16:54:01.812Z,3.60
2018-12-24T16:56:42.358Z,3.60
2018-12-24T16:59:23.242Z,3.60
2018-12-24T17:02:04.139Z,3.60
2018-12-24T17:04:45.060Z,3.50
2018-12-24T17:07:25.861Z,3.60
2018-12-24T17:10:06.931Z,3.50
2018-12-24T17:12:47.592Z,3.50
2018-12-24T17:15:28.072Z,3.40
2018-12-24T17:18:08.384Z,3.50
2018-12-24T17:20:49.692Z,3.40
2018-12-24T17:23:30.588Z,3.30
2018-12-24T17:26:11.341Z,3.20
2018-12-24T17:28:51.921Z,3.20
2018-12-24T17:31:32.780Z,3.20
2018-12-24T17:34:13.751Z,3.20
2018-12-24T17:36:54.945Z,3.20
2018-12-24T17:39:35.510Z,3.20
2018-12-24T17:42:16.593Z,3.20
2018-12-24T17:44:57.148Z,3.20
2018-12-24T17:47:37.706Z,3.10
2018-12-24T17:50:18.617Z,3.20
2018-12-24T17:52:59.018Z,3.20
2018-12-24T17:55:39.888Z,3.20
2018-12-24T17:58:20.695Z,3.20
2018-12-24T18:01:01.567Z,3.20
2018-12-24T18:03:41.996Z,3.20
2018-12-24T18:09:05.534Z,3.30
2018-12-24T18:11:45.911Z,3.30
2018-12-24T18:14:26.657Z,3.30
2018-12-24T18:17:07.418Z,3.30
2018-12-24T18:19:48.443Z,3.40
2018-12-24T18:22:28.817Z,3.40
2018-12-24T18:25:09.741Z,3.40
2018-12-24T18:27:50.060Z,3.40
2018-12-24T18:30:30.437Z,3.40
2018-12-24T18:33:11.649Z,3.40
2018-12-24T18:35:52.818Z,3.40
2018-12-24T18:38:33.665Z,3.30
2018-12-24T18:41:15.031Z,3.30
2018-12-24T18:43:55.762Z,3.30
2018-12-24T18:46:37.050Z,3.30
2018-12-24T18:49:17.645Z,3.30
2018-12-24T18:51:58.216Z,3.20
2018-12-24T18:54:39.173Z,3.30
2018-12-24T18:57:20.450Z,3.20
2018-12-24T19:00:00.991Z,3.20
2018-12-24T19:02:42.103Z,3.20
2018-12-24T19:05:24.827Z,3.20
2018-12-24T19:08:05.378Z,3.20
2018-12-24T19:10:45.913Z,3.20
2018-12-24T19:13:25.740Z,3.20
2018-12-24T19:16:13.744Z,3.10
2018-12-24T19:18:55.110Z,3.10
2018-12-24T19:21:43.733Z,3.10
2018-12-24T19:24:19.167Z,3.10
2018-12-24T19:27:00.117Z,3.10
2018-12-24T19:29:40.780Z,3.10
2018-12-24T19:32:21.768Z,3.10
2018-12-24T19:35:02.742Z,3.10
2018-12-24T19:37:43.646Z,3.10
2018-12-24T19:40:24.633Z,3.10
2018-12-24T19:43:05.529Z,3.10
2018-12-24T19:45:46.361Z,3.10
2018-12-24T19:48:27.848Z,3.20
2018-12-24T19:51:08.849Z,3.20
2018-12-24T19:53:50.186Z,3.30
2018-12-24T19:56:31.481Z,3.40
2018-12-24T19:59:12.679Z,3.40
2018-12-24T20:01:54.468Z,3.40
2018-12-24T20:04:35.811Z,3.40
2018-12-24T20:07:16.485Z,3.40
2018-12-24T20:09:45.959Z,3.40
2018-12-24T20:12:14.572Z,3.40
2018-12-24T20:15:02.472Z,3.50
2018-12-24T20:17:58.042Z,3.50
2018-12-24T20:20:33.094Z,3.60
2018-12-24T20:23:13.504Z,3.60
2018-12-24T20:25:54.506Z,3.70
2018-12-24T20:28:35.131Z,3.80
2018-12-24T20:31:15.617Z,3.90
2018-12-24T20:33:56.643Z,4.00
2018-12-24T20:36:37.539Z,4.20
2018-12-24T20:39:18.281Z,4.30
2018-12-24T20:41:59.383Z,4.30
2018-12-24T20:44:40.707Z,4.30
2018-12-24T20:47:21.091Z,4.40
2018-12-24T20:50:01.844Z,4.50
2018-12-24T20:52:42.533Z,4.50
2018-12-24T20:55:23.090Z,4.50
2018-12-24T20:58:03.537Z,4.50
2018-12-24T21:00:45.097Z,4.60
2018-12-24T21:03:25.783Z,4.60
2018-12-24T21:06:06.265Z,4.60
2018-12-24T21:08:47.073Z,4.60
2018-12-24T21:11:28.402Z,4.60
2018-12-24T21:14:09.747Z,4.50
2018-12-24T21:16:50.631Z,4.50
2018-12-24T21:19:31.051Z,4.50
2018-12-24T21:22:11.515Z,4.50
2018-12-24T21:24:51.948Z,4.50
2018-12-24T21:27:22.464Z,4.60
2018-12-24T21:30:10.420Z,4.60
2018-12-24T21:32:58.411Z,4.60
2018-12-24T21:35:46.413Z,4.60
2018-12-24T21:38:15.149Z,4.70
2018-12-24T21:41:03.114Z,4.70
2018-12-24T21:43:51.088Z,4.60
2018-12-24T21:46:39.128Z,4.70
2018-12-24T21:49:27.151Z,4.70
2018-12-24T21:52:15.056Z,4.70
2018-12-24T21:55:03.032Z,4.70
2018-12-24T21:57:51.304Z,4.80
2018-12-24T22:00:20.125Z,4.80
2018-12-24T22:03:08.064Z,4.80
2018-12-24T22:05:56.029Z,4.80
2018-12-24T22:08:44.012Z,4.80
2018-12-24T22:11:31.956Z,4.80
2018-12-24T22:14:19.922Z,4.80
2018-12-24T22:17:07.972Z,4.70
2018-12-24T22:19:48.601Z,4.70
2018-12-24T22:22:29.758Z,4.70
2018-12-24T22:25:10.192Z,4.70
2018-12-24T22:27:50.956Z,4.70
2018-12-24T22:30:32.022Z,4.70
2018-12-24T22:33:13.271Z,4.70
2018-12-24T22:35:54.245Z,4.80
2018-12-24T22:38:35.043Z,4.80
2018-12-24T22:41:16.634Z,4.80
2018-12-24T22:43:57.141Z,4.80
2018-12-24T22:46:37.605Z,4.70
2018-12-24T22:49:18.062Z,4.80
2018-12-24T22:51:58.439Z,4.80
2018-12-24T22:54:39.049Z,4.80
2018-12-24T22:57:20.211Z,4.80
2018-12-24T23:00:00.929Z,4.90
2018-12-24T23:02:42.049Z,4.90
2018-12-24T23:05:22.574Z,4.90
2018-12-24T23:08:03.073Z,4.90
2018-12-24T23:10:31.632Z,4.80
2018-12-24T23:13:19.593Z,4.90
2018-12-24T23:16:07.809Z,4.90
2018-12-24T23:18:55.759Z,4.90
2018-12-24T23:21:43.665Z,4.90
2018-12-24T23:24:31.616Z,4.90
2018-12-24T23:27:19.519Z,4.90
2018-12-24T23:35:04.520Z,5.20
2018-12-24T23:37:33.199Z,5.10
2018-12-24T23:40:21.114Z,5.00
2018-12-24T23:43:09.044Z,5.00
2018-12-24T23:45:56.962Z,5.00
2018-12-24T23:48:25.567Z,5.00
2018-12-24T23:51:06.781Z,5.00
2018-12-24T23:53:47.489Z,5.00
2018-12-24T23:56:28.320Z,5.00
2018-12-24T23:59:09.531Z,5.00
